Terminal Aerodrome Forecast
Issued by NWS

Home | Current Version | Previous Version | Text Only | Print | Product List | Glossary On
Versions: 1 2 3 4 5 6 7 8 9 10 11 12 13 14 15 16 17 18 19 20 21 22
000
FTUS46 KMFR 021743
TAFRBG
TAF
KRBG 021743Z 0218/0318 00000KT P6SM SCT008 OVC040
     FM022000 35005KT P6SM FEW015 BKN040
     FM022200 36010KT P6SM SCT040
     FM030300 VRB03KT P6SM FEW035
     FM031300 00000KT 1SM BR BKN003=

USA.gov is the U.S. government's official web portal to all federal, state and local government web resources and services.